createdAt,value
2018-12-21T00:02:14.916Z,84.40
2018-12-21T00:04:45.758Z,84.62
2018-12-21T00:09:55.255Z,83.86
2018-12-21T00:12:25.976Z,84.50
2018-12-21T00:14:56.696Z,84.23
2018-12-21T00:17:34.449Z,84.28
2018-12-21T00:20:00.157Z,84.23
2018-12-21T00:22:30.881Z,84.28
2018-12-21T00:25:01.581Z,84.06
2018-12-21T00:27:32.305Z,84.46
2018-12-21T00:30:04.092Z,83.90
2018-12-21T00:32:40.036Z,84.14
2018-12-21T00:35:16.268Z,84.57
2018-12-21T00:37:52.272Z,84.35
2018-12-21T00:40:28.257Z,84.29
2018-12-21T00:45:57.107Z,85.66
2018-12-21T00:48:27.818Z,84.53
2018-12-21T00:50:58.666Z,84.69
2018-12-21T00:53:29.464Z,84.90
2018-12-21T00:56:00.171Z,84.82
2018-12-21T00:58:31.068Z,84.98
2018-12-21T01:01:01.955Z,84.65
2018-12-21T01:03:32.756Z,84.98
2018-12-21T01:06:03.639Z,84.19
2018-12-21T01:08:34.426Z,84.58
2018-12-21T01:11:05.254Z,84.09
2018-12-21T01:16:16.901Z,84.07
2018-12-21T01:18:47.654Z,84.25
2018-12-21T01:21:18.452Z,84.63
2018-12-21T01:23:49.222Z,84.18
2018-12-21T01:26:19.952Z,84.69
2018-12-21T01:28:50.718Z,84.66
2018-12-21T01:31:21.532Z,84.54
2018-12-21T01:33:52.292Z,84.51
2018-12-21T01:36:23.151Z,84.72
2018-12-21T01:38:53.937Z,84.58
2018-12-21T01:41:24.685Z,84.78
2018-12-21T01:43:55.436Z,84.97
2018-12-21T01:46:26.293Z,84.76
2018-12-21T01:48:57.059Z,85.06
2018-12-21T01:51:27.825Z,84.49
2018-12-21T01:53:58.652Z,84.20
2018-12-21T01:56:29.417Z,84.84
2018-12-21T01:59:00.160Z,84.86
2018-12-21T02:01:30.987Z,84.90
2018-12-21T02:04:01.985Z,84.78
2018-12-21T02:06:32.895Z,83.92
2018-12-21T02:09:03.920Z,84.29
2018-12-21T02:11:34.676Z,84.06
2018-12-21T02:14:05.550Z,85.01
2018-12-21T02:16:36.305Z,83.82
2018-12-21T02:19:07.041Z,84.53
2018-12-21T02:21:37.786Z,84.45
2018-12-21T02:24:08.554Z,84.51
2018-12-21T02:26:39.276Z,84.29
2018-12-21T02:29:11.053Z,84.52
2018-12-21T02:31:41.788Z,84.44
2018-12-21T02:34:12.563Z,84.42
2018-12-21T02:36:43.313Z,84.49
2018-12-21T02:39:14.106Z,85.16
2018-12-21T02:41:44.891Z,84.33
2018-12-21T02:44:15.769Z,85.27
2018-12-21T02:46:46.577Z,85.02
2018-12-21T02:49:17.480Z,84.94
2018-12-21T02:51:48.243Z,85.29
2018-12-21T02:54:19.463Z,85.32
2018-12-21T02:56:50.305Z,85.66
2018-12-21T02:59:21.171Z,85.70
2018-12-21T03:01:51.932Z,85.38
2018-12-21T03:04:22.704Z,85.58
2018-12-21T03:06:53.472Z,85.51
2018-12-21T03:09:24.216Z,85.30
2018-12-21T03:11:54.990Z,85.61
2018-12-21T03:14:26.120Z,85.10
2018-12-21T03:17:02.872Z,85.00
2018-12-21T03:19:33.665Z,85.05
2018-12-21T03:22:04.522Z,85.30
2018-12-21T03:24:35.270Z,85.50
2018-12-21T03:27:06.143Z,85.10
2018-12-21T03:29:36.879Z,84.25
2018-12-21T03:32:07.631Z,85.07
2018-12-21T03:34:38.482Z,84.94
2018-12-21T03:37:10.516Z,84.97
2018-12-21T03:39:41.280Z,85.74
2018-12-21T03:42:12.032Z,85.41
2018-12-21T03:44:43.404Z,85.03
2018-12-21T03:47:14.201Z,84.82
2018-12-21T03:49:44.960Z,85.03
2018-12-21T03:52:24.012Z,84.90
2018-12-21T03:54:48.794Z,85.23
2018-12-21T03:57:19.628Z,84.70
2018-12-21T03:59:50.486Z,84.98
2018-12-21T04:02:21.257Z,85.13
2018-12-21T04:04:52.035Z,85.47
2018-12-21T04:07:22.882Z,85.18
2018-12-21T04:09:53.677Z,84.54
2018-12-21T04:12:24.493Z,84.79
2018-12-21T04:14:55.262Z,85.03
2018-12-21T04:17:26.029Z,84.89
2018-12-21T04:19:56.792Z,84.39
2018-12-21T04:22:34.092Z,84.28
2018-12-21T04:25:00.277Z,84.49
2018-12-21T04:27:31.050Z,84.68
2018-12-21T04:30:01.830Z,83.92
2018-12-21T04:32:32.633Z,83.64
2018-12-21T04:35:03.714Z,84.19
2018-12-21T04:37:34.494Z,84.38
2018-12-21T04:40:05.820Z,84.47
2018-12-21T04:42:36.558Z,84.19
2018-12-21T04:45:07.437Z,84.30
2018-12-21T04:47:38.187Z,83.98
2018-12-21T04:50:09.906Z,84.17
2018-12-21T04:52:43.298Z,83.72
2018-12-21T04:55:13.396Z,84.18
2018-12-21T04:57:44.385Z,84.02
2018-12-21T05:00:15.451Z,84.19
2018-12-21T05:02:47.183Z,84.25
2018-12-21T05:05:18.446Z,84.31
2018-12-21T05:07:49.396Z,84.42
2018-12-21T05:10:20.252Z,84.39
2018-12-21T05:12:51.189Z,84.50
2018-12-21T05:15:22.112Z,84.67
2018-12-21T05:17:53.013Z,84.51
2018-12-21T05:20:23.905Z,84.74
2018-12-21T05:22:55.776Z,84.87
2018-12-21T05:25:26.549Z,84.79
2018-12-21T05:27:57.389Z,85.03
2018-12-21T05:30:28.250Z,84.95
2018-12-21T05:32:59.049Z,84.96
2018-12-21T05:35:29.825Z,85.13
2018-12-21T05:38:00.574Z,84.80
2018-12-21T05:40:31.329Z,84.60
2018-12-21T05:43:02.068Z,84.72
2018-12-21T05:45:32.842Z,84.95
2018-12-21T05:48:03.580Z,84.52
2018-12-21T05:50:34.336Z,85.04
2018-12-21T05:53:05.100Z,92.94
2018-12-21T05:55:36.189Z,84.17
2018-12-21T05:58:06.940Z,84.01
2018-12-21T06:00:37.796Z,83.86
2018-12-21T06:03:08.535Z,84.04
2018-12-21T06:05:39.317Z,84.25
2018-12-21T06:08:11.240Z,84.42
2018-12-21T06:10:41.973Z,84.63
2018-12-21T06:13:12.751Z,84.21
2018-12-21T06:15:43.516Z,84.17
2018-12-21T06:18:14.254Z,83.89
2018-12-21T06:20:45.100Z,83.77
2018-12-21T06:23:15.882Z,84.36
2018-12-21T06:25:46.619Z,84.14
2018-12-21T06:28:17.352Z,83.92
2018-12-21T06:30:48.107Z,83.90
2018-12-21T06:33:18.992Z,83.68
2018-12-21T06:35:49.760Z,83.67
2018-12-21T06:38:20.557Z,83.62
2018-12-21T06:40:51.392Z,84.05
2018-12-21T06:43:22.149Z,83.64
2018-12-21T06:45:53.017Z,84.12
2018-12-21T06:48:23.753Z,84.84
2018-12-21T06:50:54.637Z,84.93
2018-12-21T06:53:25.380Z,85.82
2018-12-21T06:55:56.225Z,85.53
2018-12-21T06:58:26.973Z,85.28
2018-12-21T07:00:57.765Z,85.85
2018-12-21T07:03:28.548Z,86.38
2018-12-21T07:05:59.299Z,86.16
2018-12-21T07:08:30.033Z,86.21
2018-12-21T07:11:00.765Z,86.10
2018-12-21T07:13:31.472Z,85.89
2018-12-21T07:16:02.198Z,86.02
2018-12-21T07:18:32.910Z,86.16
2018-12-21T07:21:03.723Z,85.81
2018-12-21T07:23:35.364Z,86.03
2018-12-21T07:26:06.096Z,85.97
2018-12-21T07:28:38.610Z,86.69
2018-12-21T07:31:10.400Z,87.15
2018-12-21T07:33:41.200Z,86.98
2018-12-21T07:36:11.930Z,87.62
2018-12-21T07:38:42.657Z,87.62
2018-12-21T07:41:13.383Z,88.11
2018-12-21T07:43:44.098Z,88.29
2018-12-21T07:46:14.828Z,88.50
2018-12-21T07:48:45.588Z,88.30
2018-12-21T07:51:16.467Z,88.91
2018-12-21T07:53:47.262Z,88.51
2018-12-21T07:56:18.038Z,89.06
2018-12-21T07:58:56.915Z,89.09
2018-12-21T08:01:21.557Z,89.42
2018-12-21T08:03:52.270Z,89.59
2018-12-21T08:06:23.010Z,89.55
2018-12-21T08:08:53.739Z,89.64
2018-12-21T08:11:24.544Z,89.54
2018-12-21T08:13:55.260Z,89.60
2018-12-21T08:16:26.001Z,89.38
2018-12-21T08:18:56.726Z,89.97
2018-12-21T08:21:27.471Z,89.81
2018-12-21T08:23:59.234Z,89.25
2018-12-21T08:26:29.993Z,89.87
2018-12-21T08:29:00.738Z,90.31
2018-12-21T08:31:31.500Z,91.24
2018-12-21T08:34:02.236Z,90.82
2018-12-21T08:36:32.988Z,91.39
2018-12-21T08:39:04.317Z,91.82
2018-12-21T08:41:35.057Z,91.78
2018-12-21T08:44:05.877Z,91.66
2018-12-21T08:46:36.620Z,92.00
2018-12-21T08:49:07.389Z,92.60
2018-12-21T08:51:38.138Z,92.69
2018-12-21T08:54:08.861Z,92.14
2018-12-21T08:56:39.593Z,92.54
2018-12-21T08:59:10.611Z,92.72
2018-12-21T09:01:41.361Z,92.74
2018-12-21T09:04:12.160Z,92.93
2018-12-21T09:06:42.918Z,92.68
2018-12-21T09:09:13.645Z,93.22
2018-12-21T09:11:44.713Z,93.05
2018-12-21T09:14:15.423Z,93.38
2018-12-21T09:16:46.166Z,92.90
2018-12-21T09:19:16.880Z,93.11
2018-12-21T09:21:47.704Z,93.14
2018-12-21T09:24:18.456Z,93.22
2018-12-21T09:26:49.276Z,93.47
2018-12-21T09:29:20.925Z,92.60
2018-12-21T09:31:51.650Z,92.99
2018-12-21T09:34:22.381Z,92.82
2018-12-21T09:36:53.136Z,92.76
2018-12-21T09:39:23.882Z,92.98
2018-12-21T09:41:54.605Z,93.18
2018-12-21T09:44:25.333Z,93.69
2018-12-21T09:46:56.156Z,93.19
2018-12-21T09:49:26.881Z,93.13
2018-12-21T09:51:57.634Z,93.58
2018-12-21T09:54:28.355Z,93.38
2018-12-21T09:56:59.136Z,93.48
2018-12-21T09:59:29.849Z,93.43
2018-12-21T10:02:00.705Z,93.16
2018-12-21T10:04:31.421Z,93.58
2018-12-21T10:07:02.157Z,93.25
2018-12-21T10:09:32.972Z,92.96
2018-12-21T10:12:03.710Z,93.19
2018-12-21T10:14:34.475Z,93.34
2018-12-21T10:17:05.312Z,93.90
2018-12-21T10:19:36.020Z,93.81
2018-12-21T10:22:06.787Z,93.50
2018-12-21T10:24:37.494Z,93.79
2018-12-21T10:27:08.262Z,94.43
2018-12-21T10:29:39.000Z,93.93
2018-12-21T10:34:48.096Z,93.59
2018-12-21T10:37:18.928Z,94.08
2018-12-21T10:39:49.649Z,94.27
2018-12-21T10:42:20.368Z,94.33
2018-12-21T10:44:51.073Z,93.98
2018-12-21T10:47:21.783Z,94.08
2018-12-21T10:49:52.589Z,94.19
2018-12-21T10:52:23.352Z,94.47
2018-12-21T10:54:54.073Z,94.19
2018-12-21T10:57:24.907Z,94.67
2018-12-21T10:59:55.622Z,94.55
2018-12-21T11:02:26.344Z,94.59
2018-12-21T11:04:57.172Z,94.74
2018-12-21T11:07:28.052Z,94.26
2018-12-21T11:09:58.771Z,94.60
2018-12-21T11:12:29.845Z,100.00
2018-12-21T11:15:00.577Z,94.22
2018-12-21T11:17:31.304Z,94.79
2018-12-21T11:20:02.104Z,94.09
2018-12-21T11:22:32.833Z,94.79
2018-12-21T11:25:03.650Z,94.91
2018-12-21T11:27:34.429Z,94.66
2018-12-21T11:30:05.916Z,95.04
2018-12-21T11:32:36.669Z,94.60
2018-12-21T11:35:07.587Z,95.42
2018-12-21T11:37:38.312Z,95.69
2018-12-21T11:40:09.228Z,95.66
2018-12-21T11:42:39.953Z,95.76
2018-12-21T11:45:11.292Z,96.45
2018-12-21T11:47:42.966Z,96.23
2018-12-21T11:50:13.860Z,95.94
2018-12-21T11:52:44.636Z,96.18
2018-12-21T11:55:15.430Z,96.03
2018-12-21T11:57:46.228Z,95.56
2018-12-21T12:00:16.938Z,96.25
2018-12-21T12:02:47.684Z,96.10
2018-12-21T12:05:18.521Z,96.08
2018-12-21T12:07:49.249Z,96.64
2018-12-21T12:10:19.987Z,96.82
2018-12-21T12:12:50.729Z,96.17
2018-12-21T12:15:21.448Z,96.18
2018-12-21T12:17:52.345Z,96.46
2018-12-21T12:20:23.065Z,96.39
2018-12-21T12:22:53.789Z,96.60
2018-12-21T12:25:24.512Z,97.08
2018-12-21T12:27:55.401Z,97.66
2018-12-21T12:30:26.209Z,97.69
2018-12-21T12:32:57.137Z,97.54
2018-12-21T12:35:27.904Z,97.62
2018-12-21T12:37:58.573Z,97.89
2018-12-21T12:40:29.236Z,98.48
2018-12-21T12:43:02.433Z,98.94
2018-12-21T12:45:33.849Z,98.33
2018-12-21T12:48:04.616Z,98.94
2018-12-21T12:50:35.276Z,98.62
2018-12-21T12:53:05.953Z,98.46
2018-12-21T12:55:36.616Z,99.00
2018-12-21T12:58:07.293Z,99.17
2018-12-21T13:00:37.962Z,99.05
2018-12-21T13:03:09.006Z,98.89
2018-12-21T13:05:39.668Z,99.18
2018-12-21T13:08:10.859Z,98.45
2018-12-21T13:10:41.669Z,98.76
2018-12-21T13:13:12.471Z,99.24
2018-12-21T13:15:43.193Z,99.18
2018-12-21T13:18:13.944Z,99.20
2018-12-21T13:20:45.728Z,99.74
2018-12-21T13:23:16.769Z,98.88
2018-12-21T13:25:47.602Z,99.16
2018-12-21T13:28:19.449Z,99.67
2018-12-21T13:30:50.307Z,99.21
2018-12-21T13:33:21.001Z,99.29
2018-12-21T13:35:51.693Z,99.31
2018-12-21T13:38:23.722Z,99.51
2018-12-21T13:40:54.448Z,99.25
2018-12-21T13:43:25.252Z,99.49
2018-12-21T13:45:55.995Z,99.40
2018-12-21T13:48:26.795Z,99.04
2018-12-21T13:50:57.494Z,99.17
2018-12-21T13:53:28.208Z,98.79
2018-12-21T13:55:58.929Z,98.12
2018-12-21T13:58:29.777Z,98.88
2018-12-21T14:01:00.439Z,98.25
2018-12-21T14:03:31.185Z,98.97
2018-12-21T14:06:01.872Z,98.94
2018-12-21T14:08:32.614Z,98.49
2018-12-21T14:11:03.306Z,98.60
2018-12-21T14:13:34.021Z,98.53
2018-12-21T14:16:04.710Z,99.03
2018-12-21T14:18:35.405Z,98.10
2018-12-21T14:21:06.105Z,98.64
2018-12-21T14:23:36.863Z,98.57
2018-12-21T14:26:07.617Z,98.51
2018-12-21T14:28:39.513Z,98.68
2018-12-21T14:31:10.879Z,98.92
2018-12-21T14:33:41.581Z,98.66
2018-12-21T14:36:12.282Z,99.76
2018-12-21T14:38:43.049Z,99.18
2018-12-21T14:41:13.773Z,99.13
2018-12-21T14:43:44.563Z,99.25
2018-12-21T14:46:15.262Z,99.53
2018-12-21T14:48:46.088Z,98.84
2018-12-21T14:51:16.933Z,99.11
2018-12-21T14:53:47.670Z,98.96
2018-12-21T14:56:18.517Z,98.83
2018-12-21T14:58:49.241Z,98.71
2018-12-21T15:01:20.030Z,99.11
2018-12-21T15:03:50.898Z,98.51
2018-12-21T15:06:21.593Z,99.17
2018-12-21T15:08:52.318Z,99.08
2018-12-21T15:11:23.116Z,98.65
2018-12-21T15:13:54.020Z,98.44
2018-12-21T15:16:24.734Z,98.98
2018-12-21T15:18:55.533Z,98.53
2018-12-21T15:21:26.254Z,99.48
2018-12-21T15:23:56.950Z,99.53
2018-12-21T15:26:27.662Z,99.11
2018-12-21T15:28:58.424Z,98.95
2018-12-21T15:31:29.133Z,99.26
2018-12-21T15:33:59.868Z,98.04
2018-12-21T15:36:30.571Z,99.29
2018-12-21T15:39:01.292Z,98.46
2018-12-21T15:41:32.000Z,98.26
2018-12-21T15:44:02.754Z,98.21
2018-12-21T15:46:33.512Z,98.29
2018-12-21T15:49:04.373Z,97.83
2018-12-21T15:51:35.135Z,97.87
2018-12-21T15:54:05.855Z,97.36
2018-12-21T15:56:36.560Z,97.77
2018-12-21T15:59:07.317Z,97.40
2018-12-21T16:01:38.066Z,97.15
2018-12-21T16:04:08.818Z,97.37
2018-12-21T16:06:39.542Z,97.33
2018-12-21T16:09:11.265Z,97.10
2018-12-21T16:11:42.093Z,96.95
2018-12-21T16:14:12.795Z,97.52
2018-12-21T16:16:43.597Z,96.64
2018-12-21T16:19:14.327Z,97.07
2018-12-21T16:21:45.103Z,96.16
2018-12-21T16:24:15.913Z,96.26
2018-12-21T16:26:46.615Z,96.52
2018-12-21T16:29:17.404Z,96.58
2018-12-21T16:31:48.103Z,96.07
2018-12-21T16:34:18.985Z,96.19
2018-12-21T16:36:49.729Z,96.51
2018-12-21T16:39:20.497Z,96.85
2018-12-21T16:41:51.184Z,96.75
2018-12-21T16:44:22.009Z,96.43
2018-12-21T16:46:52.746Z,96.23
2018-12-21T16:49:23.454Z,96.51
2018-12-21T16:51:54.262Z,96.10
2018-12-21T16:54:25.012Z,96.14
2018-12-21T16:56:55.708Z,95.36
2018-12-21T16:59:26.409Z,95.39
2018-12-21T17:01:57.196Z,95.74
2018-12-21T17:04:27.961Z,95.17
2018-12-21T17:06:58.675Z,95.36
2018-12-21T17:09:30.336Z,95.80
2018-12-21T17:12:01.175Z,95.04
2018-12-21T17:14:31.982Z,94.92
2018-12-21T17:17:04.970Z,95.58
2018-12-21T17:19:35.601Z,96.00
2018-12-21T17:22:06.431Z,95.44
2018-12-21T17:24:37.185Z,95.07
2018-12-21T17:27:07.951Z,95.25
2018-12-21T17:29:38.701Z,94.93
2018-12-21T17:32:10.753Z,95.17
2018-12-21T17:34:41.482Z,94.53
2018-12-21T17:37:12.272Z,94.54
2018-12-21T17:39:43.038Z,94.55
2018-12-21T17:42:13.748Z,94.19
2018-12-21T17:44:45.234Z,93.52
2018-12-21T17:47:16.060Z,93.63
2018-12-21T17:49:46.849Z,94.05
2018-12-21T17:52:17.586Z,94.29
2018-12-21T17:54:48.294Z,94.35
2018-12-21T17:57:19.084Z,94.61
2018-12-21T17:59:50.254Z,94.28
2018-12-21T18:02:20.950Z,94.55
2018-12-21T18:04:51.654Z,93.62
2018-12-21T18:07:22.359Z,93.44
2018-12-21T18:09:53.064Z,93.03
2018-12-21T18:12:23.755Z,92.72
2018-12-21T18:14:54.545Z,92.38
2018-12-21T18:17:25.245Z,92.47
2018-12-21T18:19:55.939Z,92.53
2018-12-21T18:22:27.316Z,92.01
2018-12-21T18:25:04.027Z,92.38
2018-12-21T18:27:36.730Z,92.82
2018-12-21T18:30:18.049Z,92.00
2018-12-21T18:32:48.768Z,92.33
2018-12-21T18:35:20.493Z,91.74
2018-12-21T18:38:00.345Z,91.13
2018-12-21T18:40:32.792Z,91.52
2018-12-21T18:43:03.504Z,91.14
2018-12-21T18:45:34.225Z,90.83
2018-12-21T18:48:05.120Z,90.82
2018-12-21T18:50:35.913Z,90.90
2018-12-21T18:53:06.632Z,91.02
2018-12-21T18:55:37.445Z,91.55
2018-12-21T18:58:08.248Z,91.69
2018-12-21T19:00:39.065Z,91.78
2018-12-21T19:03:09.914Z,90.71
2018-12-21T19:05:40.622Z,90.83
2018-12-21T19:08:11.537Z,90.32
2018-12-21T19:10:42.297Z,90.54
2018-12-21T19:13:12.965Z,90.20
2018-12-21T19:15:43.644Z,90.84
2018-12-21T19:18:14.463Z,90.67
2018-12-21T19:20:45.131Z,90.51
2018-12-21T19:23:15.794Z,90.37
2018-12-21T19:25:46.508Z,90.32
2018-12-21T19:28:17.183Z,89.84
2018-12-21T19:30:47.905Z,89.54
2018-12-21T19:33:18.569Z,90.05
2018-12-21T19:35:49.274Z,89.67
2018-12-21T19:38:19.953Z,89.48
2018-12-21T19:40:50.644Z,89.59
2018-12-21T19:43:28.140Z,90.23
2018-12-21T19:45:54.608Z,89.19
2018-12-21T19:48:25.277Z,89.69
2018-12-21T19:50:55.961Z,89.15
2018-12-21T19:53:26.656Z,89.26
2018-12-21T19:56:08.539Z,89.59
2018-12-21T19:58:39.208Z,88.68
2018-12-21T20:01:11.138Z,89.66
2018-12-21T20:03:41.818Z,89.29
2018-12-21T20:06:12.544Z,88.70
2018-12-21T20:08:43.221Z,88.28
2018-12-21T20:11:13.909Z,88.61
2018-12-21T20:13:44.599Z,88.24
2018-12-21T20:16:15.290Z,88.48
2018-12-21T20:18:47.687Z,88.08
2018-12-21T20:21:18.589Z,88.26
2018-12-21T20:23:49.453Z,88.22
2018-12-21T20:26:20.433Z,87.90
2018-12-21T20:28:51.116Z,88.08
2018-12-21T20:31:21.853Z,87.77
2018-12-21T20:33:52.540Z,88.19
2018-12-21T20:36:23.323Z,87.41
2018-12-21T20:38:54.013Z,88.14
2018-12-21T20:41:24.714Z,88.04
2018-12-21T20:43:55.393Z,87.42
2018-12-21T20:46:26.121Z,87.36
2018-12-21T20:48:56.833Z,87.67
2018-12-21T20:51:27.592Z,87.19
2018-12-21T20:53:58.303Z,87.07
2018-12-21T20:56:29.089Z,87.47
2018-12-21T20:59:07.748Z,87.73
2018-12-21T21:01:38.533Z,87.29
2018-12-21T21:04:09.237Z,87.10
2018-12-21T21:06:40.100Z,87.10
2018-12-21T21:09:13.238Z,87.27
2018-12-21T21:11:44.016Z,86.60
2018-12-21T21:14:16.778Z,86.56
2018-12-21T21:16:47.513Z,86.92
2018-12-21T21:19:18.204Z,87.25
2018-12-21T21:21:48.900Z,87.10
2018-12-21T21:24:19.597Z,86.62
2018-12-21T21:26:50.289Z,87.07
2018-12-21T21:29:20.971Z,86.40
2018-12-21T21:31:51.745Z,86.70
2018-12-21T21:34:22.497Z,86.53
2018-12-21T21:36:53.277Z,86.83
2018-12-21T21:39:23.993Z,87.06
2018-12-21T21:41:54.841Z,87.19
2018-12-21T21:44:25.554Z,86.64
2018-12-21T21:46:56.590Z,85.84
2018-12-21T21:49:29.052Z,86.57
2018-12-21T21:51:59.740Z,86.86
2018-12-21T21:54:30.421Z,86.44
2018-12-21T21:57:01.100Z,87.15
2018-12-21T21:59:31.782Z,86.89
2018-12-21T22:02:02.478Z,86.97
2018-12-21T22:04:33.167Z,86.64
2018-12-21T22:07:03.981Z,87.44
2018-12-21T22:09:41.411Z,88.20
2018-12-21T22:12:12.119Z,90.21
2018-12-21T22:14:42.811Z,90.16
2018-12-21T22:17:13.548Z,91.05
2018-12-21T22:19:44.277Z,92.04
2018-12-21T22:22:15.252Z,93.00
2018-12-21T22:24:46.272Z,94.44
2018-12-21T22:27:17.016Z,95.16
2018-12-21T22:29:47.669Z,95.80
2018-12-21T22:32:18.388Z,96.22
2018-12-21T22:34:49.083Z,96.38
2018-12-21T22:37:19.936Z,96.20
2018-12-21T22:39:50.617Z,95.98
2018-12-21T22:42:21.288Z,96.14
2018-12-21T22:44:52.045Z,96.27
2018-12-21T22:47:22.756Z,96.67
2018-12-21T22:50:00.218Z,96.24
2018-12-21T22:52:30.904Z,95.48
2018-12-21T22:55:01.658Z,95.90
2018-12-21T22:57:32.343Z,95.37
2018-12-21T23:00:03.031Z,95.61
2018-12-21T23:02:35.142Z,94.25
2018-12-21T23:05:06.102Z,94.07
2018-12-21T23:07:36.779Z,93.55
2018-12-21T23:10:08.332Z,94.37
2018-12-21T23:12:39.101Z,94.84
2018-12-21T23:15:11.453Z,95.26
2018-12-21T23:17:42.156Z,94.99
2018-12-21T23:20:12.858Z,94.99
2018-12-21T23:22:43.914Z,95.33
2018-12-21T23:25:14.597Z,96.30
2018-12-21T23:27:45.408Z,95.83
2018-12-21T23:30:16.095Z,96.69
2018-12-21T23:32:46.874Z,96.09
2018-12-21T23:35:17.669Z,95.94
2018-12-21T23:37:48.348Z,96.33
2018-12-21T23:40:19.040Z,95.85
2018-12-21T23:42:49.895Z,96.48
2018-12-21T23:45:20.581Z,94.58
2018-12-21T23:47:51.459Z,95.55
2018-12-21T23:50:22.151Z,94.40
2018-12-21T23:52:52.907Z,93.63
2018-12-21T23:55:23.579Z,93.12
2018-12-21T23:57:54.282Z,94.08
